createdAt,value
2022-12-19T00:02:25.655Z,46.87
2022-12-19T00:07:30.564Z,51.20
2022-12-19T00:12:33.885Z,41.30
2022-12-19T00:17:37.337Z,46.47
2022-12-19T00:22:42.712Z,40.80
2022-12-19T00:27:46.012Z,44.43
2022-12-19T00:32:49.427Z,49.63
2022-12-19T00:37:54.211Z,56.20
2022-12-19T00:42:57.495Z,49.70
2022-12-19T00:48:03.264Z,51.03
2022-12-19T00:53:07.976Z,46.60
2022-12-19T00:58:11.233Z,53.03
2022-12-19T01:03:14.844Z,47.03
2022-12-19T01:08:19.852Z,40.60
2022-12-19T01:13:26.690Z,44.80
2022-12-19T01:18:30.075Z,47.33
2022-12-19T01:23:35.111Z,49.73
2022-12-19T01:28:40.689Z,47.57
2022-12-19T01:33:44.141Z,50.97
2022-12-19T01:38:50.564Z,47.03
2022-12-19T01:43:59.173Z,48.43
2022-12-19T01:49:04.158Z,47.00
2022-12-19T01:54:11.829Z,48.80
2022-12-19T01:59:20.449Z,47.00
2022-12-19T02:04:25.878Z,46.10
2022-12-19T02:09:31.870Z,42.03
2022-12-19T02:14:35.860Z,48.03
2022-12-19T02:20:06.089Z,53.00
2022-12-19T02:25:44.639Z,40.33
2022-12-19T02:30:59.295Z,37.77
2022-12-19T02:36:11.511Z,43.10
2022-12-19T02:41:20.352Z,49.93
2022-12-19T02:46:26.829Z,53.73
2022-12-19T02:51:30.248Z,47.73
2022-12-19T02:56:45.231Z,40.90
2022-12-19T03:01:57.397Z,44.17
2022-12-19T03:07:05.319Z,48.30
2022-12-19T03:12:17.613Z,49.20
2022-12-19T03:17:22.738Z,48.40
2022-12-19T03:22:26.144Z,56.33
2022-12-19T03:27:33.544Z,49.37
2022-12-19T03:32:39.985Z,42.10
2022-12-19T03:37:44.040Z,47.77
2022-12-19T03:43:07.636Z,38.13
2022-12-19T03:48:18.152Z,46.27
2022-12-19T03:53:32.955Z,49.47
2022-12-19T03:58:39.457Z,46.97
2022-12-19T04:03:45.646Z,37.63
2022-12-19T04:08:49.583Z,43.83
2022-12-19T04:13:57.079Z,40.67
2022-12-19T04:19:07.581Z,43.00
2022-12-19T04:24:16.449Z,41.50
2022-12-19T04:29:20.407Z,47.07
2022-12-19T04:34:25.140Z,42.10
2022-12-19T04:39:29.298Z,45.83
2022-12-19T04:44:32.555Z,40.93
2022-12-19T04:49:37.189Z,45.23
2022-12-19T04:54:40.444Z,38.00
2022-12-19T04:59:43.877Z,41.30
2022-12-19T05:04:49.583Z,42.27
2022-12-19T05:09:53.040Z,37.40
2022-12-19T05:14:56.333Z,38.17
2022-12-19T05:20:00.858Z,37.77
2022-12-19T05:25:04.452Z,36.60
2022-12-19T05:35:40.660Z,34.50
2022-12-19T05:40:44.497Z,41.70
2022-12-19T05:45:47.696Z,56.03
2022-12-19T05:50:52.340Z,38.00
2022-12-19T05:56:04.427Z,45.40
2022-12-19T06:01:09.872Z,39.53
2022-12-19T06:06:17.197Z,38.27
2022-12-19T06:11:20.440Z,28.60
2022-12-19T06:16:24.841Z,32.07
2022-12-19T06:21:29.611Z,39.70
2022-12-19T06:26:34.640Z,39.37
2022-12-19T06:31:38.792Z,35.77
2022-12-19T06:36:43.447Z,33.93
2022-12-19T06:42:04.176Z,41.60
2022-12-19T06:47:07.445Z,38.87
2022-12-19T06:52:12.139Z,56.88
2022-12-19T06:57:15.408Z,41.27
2022-12-19T07:02:28.525Z,33.60
2022-12-19T07:07:34.562Z,39.20
2022-12-19T07:12:38.143Z,36.07
2022-12-19T07:17:41.608Z,39.73
2022-12-19T07:22:46.698Z,36.83
2022-12-19T07:27:50.216Z,36.50
2022-12-19T07:32:53.556Z,33.83
2022-12-19T07:38:02.978Z,32.27
2022-12-19T07:43:07.520Z,34.37
2022-12-19T07:48:11.266Z,28.30
2022-12-19T07:53:16.052Z,34.47
2022-12-19T07:58:20.382Z,41.37
2022-12-19T08:03:23.869Z,33.93
2022-12-19T08:08:30.484Z,35.50
2022-12-19T08:13:39.694Z,32.07
2022-12-19T08:18:44.492Z,34.30
2022-12-19T08:23:49.156Z,44.27
2022-12-19T08:28:53.138Z,38.77
2022-12-19T08:33:57.913Z,41.53
2022-12-19T08:39:02.475Z,32.43
2022-12-19T08:44:05.695Z,39.33
2022-12-19T08:49:08.889Z,32.50
2022-12-19T08:54:13.536Z,32.43
2022-12-19T08:59:21.262Z,36.53
2022-12-19T09:05:50.090Z,34.90
2022-12-19T09:10:01.851Z,35.20
2022-12-19T09:15:05.616Z,34.53
2022-12-19T09:20:11.008Z,28.57
2022-12-19T09:25:15.711Z,35.33
2022-12-19T09:30:19.598Z,45.37
2022-12-19T09:35:28.460Z,34.20
2022-12-19T09:40:47.408Z,35.60
2022-12-19T09:45:58.722Z,32.57
2022-12-19T09:51:11.159Z,30.30
2022-12-19T09:56:18.229Z,28.73
2022-12-19T10:01:27.006Z,33.78
2022-12-19T10:07:08.829Z,33.38
2022-12-19T10:12:44.837Z,30.60
2022-12-19T10:17:54.323Z,27.73
2022-12-19T10:23:16.839Z,30.35
2022-12-19T10:28:37.398Z,25.02
2022-12-19T10:33:46.338Z,30.88
2022-12-19T10:38:57.989Z,25.73
2022-12-19T10:44:06.021Z,28.02
2022-12-19T10:49:15.100Z,21.17
2022-12-19T10:54:18.411Z,21.20
2022-12-19T10:59:23.352Z,21.70
2022-12-19T11:04:31.814Z,22.13
2022-12-19T11:09:39.552Z,25.30
2022-12-19T11:19:08.940Z,27.88
2022-12-19T11:29:43.775Z,22.90
2022-12-19T11:30:49.026Z,22.48
2022-12-19T11:36:41.006Z,20.85
2022-12-19T11:41:50.925Z,23.48
2022-12-19T11:47:04.367Z,23.55
2022-12-19T11:52:54.059Z,21.05
2022-12-19T11:57:43.271Z,28.25
2022-12-19T12:03:19.863Z,22.90
2022-12-19T12:10:53.825Z,22.33
2022-12-19T12:24:28.136Z,20.23
2022-12-19T12:31:18.534Z,18.20
2022-12-19T12:31:27.457Z,23.40
2022-12-19T12:42:17.537Z,18.38
2022-12-19T12:47:24.388Z,22.52
2022-12-19T12:52:35.120Z,21.17
2022-12-19T12:57:40.092Z,24.15
2022-12-19T13:02:46.364Z,20.58
2022-12-19T13:07:53.321Z,28.98
2022-12-19T13:13:01.753Z,24.48
2022-12-19T13:18:38.775Z,22.50
2022-12-19T13:23:51.034Z,20.70
2022-12-19T13:28:55.809Z,22.63
2022-12-19T13:34:19.420Z,19.75
2022-12-19T13:40:00.881Z,24.50
2022-12-19T13:45:06.914Z,24.20
2022-12-19T13:50:20.442Z,20.42
2022-12-19T13:55:24.294Z,19.40
2022-12-19T14:00:36.642Z,19.45
2022-12-19T14:06:15.879Z,19.65
2022-12-19T14:11:33.286Z,23.52
2022-12-19T14:16:34.394Z,24.10
2022-12-19T14:22:10.308Z,24.25
2022-12-19T14:28:23.522Z,24.08
2022-12-19T14:33:44.910Z,21.60
2022-12-19T14:39:20.588Z,20.80
2022-12-19T14:43:56.541Z,21.48
2022-12-19T14:54:11.034Z,20.07
2022-12-19T14:56:06.281Z,23.50
2022-12-19T15:01:09.168Z,21.30
2022-12-19T15:07:05.954Z,23.77
2022-12-19T15:13:14.197Z,24.90
2022-12-19T15:17:28.470Z,19.87
2022-12-19T15:22:33.140Z,17.73
2022-12-19T15:27:36.526Z,20.50
2022-12-19T15:32:39.709Z,19.30
2022-12-19T15:37:44.815Z,29.07
2022-12-19T15:42:53.057Z,25.90
2022-12-19T15:47:56.364Z,25.63
2022-12-19T15:53:02.586Z,22.10
2022-12-19T15:58:07.951Z,24.30
2022-12-19T16:03:22.685Z,19.27
2022-12-19T16:08:29.465Z,23.03
2022-12-19T16:13:35.341Z,27.30
2022-12-19T16:18:38.688Z,46.57
2022-12-19T16:23:43.338Z,48.07
2022-12-19T16:28:46.624Z,39.50
2022-12-19T16:33:49.896Z,40.90
2022-12-19T16:38:54.569Z,34.97
2022-12-19T16:43:57.966Z,41.23
2022-12-19T16:49:01.587Z,35.97
2022-12-19T16:54:07.106Z,31.97
2022-12-19T16:59:16.935Z,36.27
2022-12-19T17:04:30.474Z,35.87
2022-12-19T17:09:36.487Z,29.63
2022-12-19T17:14:40.815Z,30.90
2022-12-19T17:19:46.187Z,33.17
2022-12-19T17:24:50.977Z,31.37
2022-12-19T17:29:56.206Z,30.80
2022-12-19T17:34:59.491Z,28.73
2022-12-19T17:40:04.202Z,35.10
2022-12-19T17:45:09.117Z,33.33
2022-12-19T17:50:21.958Z,33.13
2022-12-19T17:55:29.019Z,39.63
2022-12-19T18:00:34.215Z,42.73
2022-12-19T18:05:37.944Z,42.70
2022-12-19T18:10:42.827Z,36.57
2022-12-19T18:15:46.268Z,27.50
2022-12-19T18:20:49.681Z,34.43
2022-12-19T18:26:01.175Z,33.33
2022-12-19T18:31:13.411Z,30.90
2022-12-19T18:36:20.335Z,35.00
2022-12-19T18:41:25.301Z,29.87
2022-12-19T18:46:30.330Z,23.10
2022-12-19T18:51:33.902Z,40.37
2022-12-19T18:56:38.687Z,27.77
2022-12-19T19:01:44.784Z,28.87
2022-12-19T19:06:52.004Z,27.73
2022-12-19T19:11:57.059Z,27.90
2022-12-19T19:17:00.450Z,25.53
2022-12-19T19:22:03.734Z,28.93
2022-12-19T19:27:08.325Z,28.53
2022-12-19T19:32:11.712Z,25.80
2022-12-19T19:37:16.515Z,25.90
2022-12-19T19:42:21.267Z,23.80
2022-12-19T19:47:28.420Z,27.43
2022-12-19T19:52:31.723Z,29.37
2022-12-19T19:57:36.634Z,27.30
2022-12-19T20:02:40.164Z,26.57
2022-12-19T20:07:44.072Z,24.87
2022-12-19T20:12:49.305Z,23.73
2022-12-19T20:17:52.993Z,28.90
2022-12-19T20:22:56.177Z,26.80
2022-12-19T20:28:00.840Z,26.40
2022-12-19T20:33:04.242Z,25.93
2022-12-19T20:38:07.458Z,25.70
2022-12-19T20:43:12.030Z,31.20
2022-12-19T20:48:15.284Z,25.43
2022-12-19T20:53:18.474Z,22.97
2022-12-19T20:58:23.834Z,20.73
2022-12-19T21:03:29.437Z,24.50
2022-12-19T21:08:33.801Z,23.10
2022-12-19T21:13:41.109Z,26.13
2022-12-19T21:18:45.836Z,22.20
2022-12-19T21:23:49.396Z,28.87
2022-12-19T21:28:54.295Z,19.03
2022-12-19T21:33:59.058Z,24.83
2022-12-19T21:39:03.031Z,21.27
2022-12-19T21:44:08.013Z,25.10
2022-12-19T21:49:11.503Z,18.40
2022-12-19T21:54:14.769Z,25.67
2022-12-19T21:59:19.450Z,23.63
2022-12-19T22:04:23.921Z,24.60
2022-12-19T22:09:27.395Z,19.53
2022-12-19T22:14:31.943Z,21.73
2022-12-19T22:19:35.577Z,28.03
2022-12-19T22:24:38.880Z,19.57
2022-12-19T22:29:43.693Z,24.93
2022-12-19T22:34:49.347Z,20.03
2022-12-19T22:39:52.533Z,25.83
2022-12-19T22:44:57.450Z,21.93
2022-12-19T22:50:00.782Z,23.40
2022-12-19T22:55:04.092Z,19.07
2022-12-19T23:00:13.065Z,20.60
2022-12-19T23:05:16.359Z,22.80
2022-12-19T23:10:20.035Z,17.63
2022-12-19T23:15:27.406Z,24.33
2022-12-19T23:20:30.698Z,19.97
2022-12-19T23:25:39.266Z,17.23
2022-12-19T23:30:43.857Z,17.40
2022-12-19T23:35:47.169Z,21.77
2022-12-19T23:40:50.464Z,20.17
2022-12-19T23:45:55.266Z,21.33
2022-12-19T23:51:00.120Z,20.20
2022-12-19T23:56:05.761Z,26.00
